Racecast

Ryan Gore

Temperance Bedford (MI) · 12 · SECMI D1MONROE · Compare head to head

Athlete rating 125.2 2019 XC season
Best race 129.1 XC
Races 52
Seasons 6 2014 — 2019

RankedNation #13536·MI #1593·MI D1 #1088·SEC #127·Team #47 ?

Rating scale ?

Cross Country

2019 XC 118.5

Temperance Bedford (MI) · Grade 12

Date Meet Event Result Place Rating Difficulty PR/SR Flags
2019-10-26 Lake Erie Metro Park OFFICIAL 5000m 18:30.6 23rd · 2nd on team 121.2 +0.055 ★CR CSR
2019-10-17 Hudson Mills Metropark - OFFICIAL 5000m 17:58 21st · 1st on team 122.8 +0.036 ★PR ★CR SR CSR RSR
2019-10-12 Munson Park 5000m 18:59.4 17th · 6th on team 118.2 +0.054 CSR
2019-10-05 Portage West MS 5000m 18:05.2 70th · 1st on team 121.6 +0.038 PR ★CR SR CSR
2019-09-28 Lake Erie Metro Park OFFICIAL 5000m 19:03 37th · 7th on team 117.1 +0.055 CR CSR
2019-09-24 Indian Creek OFFICIAL 5000m 18:16 37th · 5th on team 122.1 +0.039 PR ★CR SR CSR RSR
2019-09-21 Ella Sharp Park OFFICIAL 5000m 18:28.9 161st · 5th on team 119.8 +0.038 PR ★CR SR CSR RSR
2019-09-10 Hudson Mills Metropark - OFFICIAL 5000m 19:25 85th · 8th on team 113.0 +0.036 CSR RSR
2019-09-07 Hedges Boyer Park 5000m 18:33.7 122nd · 1st on team 110.7 -0.036 PR ★CR SR CSR RSR

2018 XC 115.4

Temperance Bedford (MI) · Grade 11

Date Meet Event Result Place Rating Difficulty PR/SR Flags
2018-10-27 Lake Erie Metro Park OFFICIAL 5000m 19:15.2 39th · 9th on team 116.7 +0.055
2018-10-18 Hudson Mills Metropark - OFFICIAL 5000m 18:53.8 72nd · 8th on team 116.3 +0.036 CR CSR
2018-10-13 Munson Park 5000m 18:53.6 33rd · 12th on team 118.2 +0.054 PR ★CR SR CSR RSR
2018-10-09 Indian Creek OFFICIAL 5000m 19:05 6th · 6th on team 117.9 +0.039 PR CR SR CSR RSR
2018-10-06 Portage West MS 5000m 19:23.6 163rd · 8th on team 114.2 +0.038 CR CSR
2018-09-29 Lake Erie Metro Park OFFICIAL 5000m 19:06.5 35th · 8th on team 117.5 +0.055 PR CR SR CSR RSR
2018-09-25 Cass Benton Park OFFICIAL 5000m 20:10.6 45th · 5th on team 114.8 +0.091 ★CR CSR
2018-09-21 Ella Sharp Park OFFICIAL 5000m 19:24.2 65th · 7th on team 115.1 +0.038 CR SR CSR RSR
2018-09-06 Willow Metropark OFFICIAL 5000m 19:32.7 69th · 4th on team 113.3 +0.048 ★CR SR CSR RSR
2018-08-31 Oakland University 4000m 16:03.9 56th · 7th on team 110.0 +0.054 ★PR ★CR SR CSR RSR

2017 XC 107.3

Temperance Bedford (MI) · Grade 10

Date Meet Event Result Place Rating Difficulty PR/SR Flags
2017-10-28 Lake Erie Metro Park OFFICIAL 5000m 19:58.1 70th · 11th on team 111.7 +0.055 CR CSR
2017-10-19 Hudson Mills Metropark - OFFICIAL 5000m 19:54.1 141st · 12th on team 111.0 +0.036 CR CSR
2017-10-10 Indian Creek OFFICIAL 5000m 19:19.9 12th · 11th on team 114.2 +0.039 PR CR SR CSR RSR
2017-10-07 Portage West MS 5000m 20:15.7 301st · 10th on team 109.8 +0.038 CR CSR
2017-09-30 Lake Erie Metro Park OFFICIAL 5000m 20:12 98th · 13th on team 109.8 +0.055 CR CSR
2017-09-22 Ella Sharp Park OFFICIAL 5000m 20:10.3 30th · 13th on team 111.4 +0.038 PR CR SR CSR RSR
2017-09-12 Hudson Mills Metropark - OFFICIAL 5000m 20:58.6 138th · 11th on team 104.8 +0.036 PR CR SR CSR
2017-09-09 Hedges Boyer Park 5000m 21:35.2 321st · 10th on team 94.8 -0.036 CSR
2017-09-01 Oakland University 4000m 16:07.8 72nd · 9th on team 106.9 +0.054 PR CR SR CSR RSR
2017-08-26 Walsh Park 5000m 21:06.1 81st · 19th on team 98.7 -0.009 PR ★CR SR CSR RSR

2016 XC 102.7

Temperance Bedford (MI) · Grade 9

Date Meet Event Result Place Rating Difficulty PR/SR Flags
2016-10-29 Lake Erie Metro Park OFFICIAL 5000m 21:13.7 117th · 16th on team 105.6 +0.055 PR CR SR CSR
2016-09-13 Heritage Park (Adrian) OFFICIAL 5000m 21:31.8 117th · 11th on team 107.0 +0.084 PR ★CR SR CSR RSR
2016-09-10 Hedges Boyer Park 5000m 21:35.1 383rd · 9th on team 95.3 -0.036 PR CR SR CSR
2016-09-02 Oakland University 4000m 16:57.7 91st · 11th on team 103.0 +0.054 PR CR SR CSR RSR

2015 XC 118.0

Temperance Bedford (MI) · Grade 8

Date Meet Event Result Place Rating Difficulty PR/SR Flags
2015-10-24 Hudson Mills Metropark - OFFICIAL 3218m 13:31.1 34th · 5th on team 129.1 +0.062 ★PR ★CR ★R SR CSR RSR
2015-10-17 Munson Park 3200m 13:41.8 33rd · 14th on team 122.6 +0.034 ★PR ★CR SR CSR
2015-10-14 Munson Park 3200m 13:56.6 68th · 12th on team 119.6 +0.034 CR CSR
2015-09-30 Hudson Mills Metropark - OFFICIAL 3200m 13:50.5 54th · 12th on team 125.4 +0.062 PR ★CR SR CSR
2015-09-26 Sterling State Park 3218m 14:07.7 50th · 12th on team 123.2 +0.057 PR ★CR SR CSR
2015-09-16 Mill Pond Park 3621m 16:09.5 59th · 11th on team 126.2 +0.099 ★PR ★CR R SR CSR RSR
2015-09-12 Hedges Boyer Park 3200m 14:41.7 34th · 14th on team 100.3 -0.089 ★CR SR CSR RSR
2015-08-27 Eastwood HS 3200m 15:26.3 131st · 14th on team 97.8 -0.060 ★CR SR CSR RSR

2014 XC 99.1

Temperance Bedford (MI) · Grade 7

Date Meet Event Result Place Rating Difficulty PR/SR Flags
2014-10-11 Munson Park 2500m 14:22 49th · 15th on team 87.6 ★PR ★CR SR CSR
2014-10-04 Fostoria HS 3200m 14:56.1 168th · 17th on team 101.2 -0.073 ★CR CSR
2014-09-27 Pearson's Metro Park 3200m 14:26 110th · 14th on team 106.8 -0.067 PR ★CR SR CSR
2014-09-24 Hudson Mills Metropark - OFFICIAL 2735m 14:29 76th · 15th on team 97.3 ★PR ★CR SR CSR
2014-09-20 Sterling State Park 3218m 15:00.8 70th · 13th on team 116.1 +0.057 PR CR R SR CSR RSR
2014-09-17 Indian Creek OFFICIAL 2500m 14:26.4 14th · 14th on team 86.9 PR ★CR SR CSR
2014-09-06 Hedges Boyer Park 3200m 15:30.4 209th · 9th on team 95.0 -0.089 PR CR SR CSR
2014-08-27 Indian Creek OFFICIAL 3200m 16:35 13th · 13th on team 101.9 +0.038 PR ★CR R SR CSR RSR

Track & Field

2016 TF 108.4

Temperance Bedford (MI) · Grade 8

Date Meet Event Result Place Rating Difficulty PR/SR Flags
2016-05-17 Bedford @ Chelsea 55mh 12.82 9th · 5th on team -0.029 ★PR SR
2016-05-17 Bedford @ Chelsea 800m 2:47.71 7th · 6th on team 108.4 -0.029 ★PR SR RSR

2015 TF 98.7

Temperance Bedford (MI) · Grade 7

Date Meet Event Result Place Rating Difficulty PR/SR Flags
2015-05-20 Saline Hornet MS Relays 1600m 6:42.38 35th · 8th on team 98.7 -0.042 ★PR SR RSR